createdAt,value
2022-10-22T00:02:20.611Z,72.83
2022-10-22T00:04:51.106Z,72.65
2022-10-22T00:07:18.602Z,72.73
2022-10-22T00:09:45.256Z,72.57
2022-10-22T00:12:12.496Z,72.54
2022-10-22T00:14:40.585Z,72.71
2022-10-22T00:17:11.222Z,72.62
2022-10-22T00:19:39.691Z,72.65
2022-10-22T00:22:07.803Z,72.64
2022-10-22T00:24:35.461Z,72.63
2022-10-22T00:27:02.419Z,72.68
2022-10-22T00:29:29.595Z,72.91
2022-10-22T00:34:27.973Z,72.73
2022-10-22T00:36:54.749Z,72.71
2022-10-22T00:39:23.682Z,72.72
2022-10-22T00:41:51.829Z,72.77
2022-10-22T00:44:55.738Z,72.54
2022-10-22T00:47:24.560Z,72.73
2022-10-22T00:49:53.454Z,72.74
2022-10-22T00:52:20.256Z,72.71
2022-10-22T00:54:46.924Z,72.71
2022-10-22T00:57:14.633Z,72.77
2022-10-22T00:59:41.143Z,72.64
2022-10-22T01:02:07.662Z,72.69
2022-10-22T01:04:34.178Z,72.70
2022-10-22T01:07:01.231Z,72.61
2022-10-22T01:09:42.145Z,72.67
2022-10-22T01:12:38.982Z,72.75
2022-10-22T01:15:19.537Z,72.79
2022-10-22T01:17:45.984Z,72.73
2022-10-22T01:20:25.977Z,72.80
2022-10-22T01:22:52.432Z,72.92
2022-10-22T01:25:34.204Z,72.65
2022-10-22T01:28:27.012Z,72.71
2022-10-22T01:30:56.452Z,72.76
2022-10-22T01:33:25.020Z,72.97
2022-10-22T01:35:53.160Z,72.76
2022-10-22T01:38:23.298Z,72.97
2022-10-22T01:40:51.336Z,72.84
2022-10-22T01:43:18.004Z,73.12
2022-10-22T01:45:48.627Z,72.82
2022-10-22T01:48:33.284Z,72.47
2022-10-22T01:51:23.000Z,72.55
2022-10-22T01:53:54.546Z,72.63
2022-10-22T01:56:54.092Z,72.61
2022-10-22T01:59:40.553Z,72.61
2022-10-22T02:02:24.457Z,72.67
2022-10-22T02:04:58.895Z,72.69
2022-10-22T02:07:29.354Z,72.68
2022-10-22T02:09:57.006Z,72.76
2022-10-22T02:12:26.590Z,72.63
2022-10-22T02:14:55.124Z,72.67
2022-10-22T02:17:22.464Z,72.60
2022-10-22T02:19:57.303Z,72.41
2022-10-22T02:22:26.016Z,72.57
2022-10-22T02:24:52.717Z,72.62
2022-10-22T02:27:27.717Z,72.36
2022-10-22T02:30:10.524Z,72.22
2022-10-22T02:33:02.813Z,72.22
2022-10-22T02:35:30.669Z,72.40
2022-10-22T02:37:59.550Z,72.23
2022-10-22T02:40:26.496Z,72.26
2022-10-22T02:42:53.295Z,72.29
2022-10-22T02:45:20.575Z,72.24
2022-10-22T02:47:47.526Z,72.26
2022-10-22T02:50:14.287Z,72.29
2022-10-22T02:52:41.315Z,72.62
2022-10-22T02:55:08.605Z,72.20
2022-10-22T02:57:35.429Z,72.29
2022-10-22T03:00:01.977Z,72.17
2022-10-22T03:02:28.495Z,72.19
2022-10-22T03:04:55.029Z,72.16
2022-10-22T03:07:21.644Z,72.18
2022-10-22T03:09:48.186Z,72.29
2022-10-22T03:12:14.674Z,72.25
2022-10-22T03:14:41.222Z,72.13
2022-10-22T03:17:07.710Z,72.19
2022-10-22T03:19:34.239Z,72.14
2022-10-22T03:22:05.151Z,72.18
2022-10-22T03:24:36.383Z,72.15
2022-10-22T03:27:03.134Z,72.18
2022-10-22T03:29:33.088Z,72.29
2022-10-22T03:31:59.734Z,72.22
2022-10-22T03:34:26.261Z,72.30
2022-10-22T03:36:53.666Z,72.25
2022-10-22T03:39:21.812Z,72.30
2022-10-22T03:41:50.113Z,72.20
2022-10-22T03:44:18.128Z,72.08
2022-10-22T03:46:45.212Z,72.17
2022-10-22T03:49:11.868Z,72.26
2022-10-22T03:51:38.447Z,72.27
2022-10-22T03:54:05.336Z,72.35
2022-10-22T03:56:31.930Z,72.28
2022-10-22T03:59:00.424Z,72.43
2022-10-22T04:01:28.850Z,72.41
2022-10-22T04:03:55.925Z,72.34
2022-10-22T04:06:23.016Z,72.48
2022-10-22T04:08:49.890Z,72.47
2022-10-22T04:11:17.170Z,72.33
2022-10-22T04:13:44.362Z,72.52
2022-10-22T04:16:26.281Z,72.26
2022-10-22T04:18:55.324Z,72.61
2022-10-22T04:21:22.584Z,72.56
2022-10-22T04:23:51.193Z,72.36
2022-10-22T04:26:19.034Z,72.55
2022-10-22T04:28:46.415Z,72.57
2022-10-22T04:31:16.438Z,72.67
2022-10-22T04:33:43.384Z,72.71
2022-10-22T04:36:12.390Z,72.61
2022-10-22T04:38:39.547Z,72.67
2022-10-22T04:41:13.508Z,72.52
2022-10-22T04:43:40.740Z,72.66
2022-10-22T04:46:09.367Z,72.68
2022-10-22T04:48:36.994Z,72.61
2022-10-22T04:51:04.613Z,72.81
2022-10-22T04:53:31.384Z,72.72
2022-10-22T04:56:08.146Z,72.26
2022-10-22T04:58:35.119Z,72.78
2022-10-22T05:01:11.837Z,72.80
2022-10-22T05:03:38.496Z,72.74
2022-10-22T05:06:05.350Z,72.87
2022-10-22T05:08:32.037Z,72.85
2022-10-22T05:10:58.727Z,72.77
2022-10-22T05:13:25.605Z,72.77
2022-10-22T05:15:52.195Z,72.86
2022-10-22T05:18:21.767Z,72.92
2022-10-22T05:20:49.204Z,72.84
2022-10-22T05:23:15.819Z,73.01
2022-10-22T05:25:42.356Z,72.86
2022-10-22T05:28:08.889Z,72.88
2022-10-22T05:30:35.467Z,72.68
2022-10-22T05:33:01.986Z,72.77
2022-10-22T05:35:28.472Z,72.86
2022-10-22T05:40:31.039Z,72.88
2022-10-22T05:42:58.986Z,72.89
2022-10-22T05:45:25.532Z,72.95
2022-10-22T05:47:52.061Z,72.94
2022-10-22T05:50:18.562Z,72.98
2022-10-22T05:52:45.130Z,72.88
2022-10-22T05:55:11.598Z,72.83
2022-10-22T05:57:40.323Z,72.94
2022-10-22T06:00:10.528Z,72.92
2022-10-22T06:02:39.618Z,72.88
2022-10-22T06:05:06.634Z,72.98
2022-10-22T06:07:33.771Z,72.88
2022-10-22T06:10:00.293Z,72.87
2022-10-22T06:12:26.853Z,72.87
2022-10-22T06:14:53.559Z,72.93
2022-10-22T06:17:20.317Z,72.92
2022-10-22T06:19:46.775Z,72.97
2022-10-22T06:22:13.309Z,73.04
2022-10-22T06:24:41.656Z,73.04
2022-10-22T06:27:11.049Z,73.09
2022-10-22T06:29:37.527Z,73.11
2022-10-22T06:32:04.111Z,73.08
2022-10-22T06:34:30.831Z,73.13
2022-10-22T06:36:57.310Z,73.12
2022-10-22T06:39:23.897Z,73.18
2022-10-22T06:41:50.422Z,73.17
2022-10-22T06:44:19.382Z,73.25
2022-10-22T06:46:48.929Z,73.18
2022-10-22T06:49:15.822Z,73.31
2022-10-22T06:51:42.547Z,73.32
2022-10-22T06:54:09.309Z,73.24
2022-10-22T06:56:35.775Z,73.23
2022-10-22T06:59:02.923Z,73.32
2022-10-22T07:01:32.437Z,73.28
2022-10-22T07:03:59.541Z,73.31
2022-10-22T07:06:27.859Z,73.48
2022-10-22T07:08:56.459Z,73.44
2022-10-22T07:11:40.153Z,73.10
2022-10-22T07:14:06.760Z,73.30
2022-10-22T07:16:33.302Z,73.71
2022-10-22T07:19:01.586Z,73.79
2022-10-22T07:21:29.052Z,73.93
2022-10-22T07:23:56.525Z,73.86
2022-10-22T07:26:25.232Z,73.75
2022-10-22T07:28:51.758Z,73.85
2022-10-22T07:31:18.910Z,73.79
2022-10-22T07:33:45.695Z,73.76
2022-10-22T07:36:17.616Z,73.68
2022-10-22T07:38:48.711Z,73.73
2022-10-22T07:41:16.663Z,73.64
2022-10-22T07:43:43.322Z,73.60
2022-10-22T07:46:09.996Z,74.01
2022-10-22T07:48:37.112Z,73.70
2022-10-22T07:51:04.402Z,73.74
2022-10-22T07:53:31.307Z,73.67
2022-10-22T07:55:58.510Z,73.61
2022-10-22T07:58:25.393Z,73.59
2022-10-22T08:00:56.162Z,73.78
2022-10-22T08:03:22.861Z,73.79
2022-10-22T08:05:49.488Z,73.86
2022-10-22T08:08:16.766Z,73.76
2022-10-22T08:10:44.268Z,73.79
2022-10-22T08:13:11.201Z,73.84
2022-10-22T08:15:38.325Z,73.91
2022-10-22T08:18:05.545Z,73.92
2022-10-22T08:20:32.205Z,74.15
2022-10-22T08:22:59.387Z,74.13
2022-10-22T08:25:26.539Z,74.27
2022-10-22T08:27:53.555Z,74.25
2022-10-22T08:30:20.278Z,74.23
2022-10-22T08:32:49.256Z,74.28
2022-10-22T08:35:18.212Z,74.22
2022-10-22T08:37:44.713Z,74.46
2022-10-22T08:40:21.902Z,74.51
2022-10-22T08:42:54.994Z,74.65
2022-10-22T08:45:42.000Z,74.48
2022-10-22T08:48:29.527Z,74.49
2022-10-22T08:50:57.577Z,74.71
2022-10-22T08:53:49.335Z,74.59
2022-10-22T08:56:15.930Z,74.80
2022-10-22T08:58:53.523Z,74.80
2022-10-22T09:01:23.661Z,75.11
2022-10-22T09:03:52.261Z,75.24
2022-10-22T09:06:22.794Z,75.49
2022-10-22T09:08:50.188Z,75.44
2022-10-22T09:11:38.266Z,75.49
2022-10-22T09:14:05.163Z,75.78
2022-10-22T09:17:03.019Z,75.92
2022-10-22T09:19:51.392Z,75.86
2022-10-22T09:22:56.050Z,76.00
2022-10-22T09:25:35.057Z,76.12
2022-10-22T09:28:01.647Z,76.44
2022-10-22T09:30:30.622Z,76.42
2022-10-22T09:33:07.526Z,76.62
2022-10-22T09:35:53.398Z,76.73
2022-10-22T09:38:30.070Z,76.93
2022-10-22T09:40:58.774Z,76.81
2022-10-22T09:43:25.314Z,76.76
2022-10-22T09:46:01.199Z,76.74
2022-10-22T09:48:39.576Z,76.80
2022-10-22T09:51:21.163Z,77.05
2022-10-22T09:54:02.650Z,77.20
2022-10-22T09:56:40.954Z,77.08
2022-10-22T09:59:15.917Z,77.10
2022-10-22T10:01:42.570Z,77.48
2022-10-22T10:04:12.820Z,77.49
2022-10-22T10:06:42.244Z,77.13
2022-10-22T10:09:17.060Z,77.03
2022-10-22T10:11:52.178Z,77.02
2022-10-22T10:14:26.972Z,77.19
2022-10-22T10:17:11.926Z,77.32
2022-10-22T10:19:54.509Z,77.20
2022-10-22T10:23:11.840Z,77.20
2022-10-22T10:25:42.200Z,77.13
2022-10-22T10:28:19.425Z,77.48
2022-10-22T10:31:15.562Z,77.46
2022-10-22T10:33:56.669Z,77.34
2022-10-22T10:36:38.736Z,77.50
2022-10-22T10:39:12.785Z,77.36
2022-10-22T10:42:23.111Z,77.31
2022-10-22T10:45:04.802Z,77.18
2022-10-22T10:48:18.797Z,77.35
2022-10-22T10:51:15.693Z,77.25
2022-10-22T10:54:06.580Z,77.30
2022-10-22T10:56:39.293Z,77.22
2022-10-22T10:59:27.342Z,77.11
2022-10-22T11:02:20.624Z,77.18
2022-10-22T11:05:26.506Z,77.13
2022-10-22T11:07:59.563Z,76.98
2022-10-22T11:10:41.838Z,77.31
2022-10-22T11:13:29.655Z,76.95
2022-10-22T11:16:24.741Z,77.18
2022-10-22T11:19:08.380Z,77.07
2022-10-22T11:21:45.742Z,77.24
2022-10-22T11:24:24.662Z,77.31
2022-10-22T11:27:10.560Z,77.29
2022-10-22T11:29:45.760Z,77.02
2022-10-22T11:32:19.879Z,77.21
2022-10-22T11:34:48.708Z,77.25
2022-10-22T11:37:16.744Z,77.06
2022-10-22T11:39:51.149Z,77.27
2022-10-22T11:42:23.882Z,77.26
2022-10-22T11:45:28.596Z,76.94
2022-10-22T11:48:10.075Z,77.03
2022-10-22T11:50:53.005Z,76.91
2022-10-22T11:53:25.796Z,76.74
2022-10-22T11:55:56.119Z,76.97
2022-10-22T11:58:28.451Z,76.62
2022-10-22T12:01:07.122Z,76.75
2022-10-22T12:03:35.922Z,76.83
2022-10-22T12:06:12.752Z,76.81
2022-10-22T12:08:54.494Z,76.62
2022-10-22T12:11:40.503Z,76.41
2022-10-22T12:14:20.829Z,76.34
2022-10-22T12:16:57.336Z,76.41
2022-10-22T12:19:27.514Z,76.24
2022-10-22T12:22:23.418Z,76.48
2022-10-22T12:24:52.451Z,76.35
2022-10-22T12:27:27.876Z,76.30
2022-10-22T12:29:57.959Z,76.47
2022-10-22T12:32:34.599Z,76.36
2022-10-22T12:35:09.097Z,76.28
2022-10-22T12:37:37.255Z,76.11
2022-10-22T12:40:22.009Z,76.30
2022-10-22T12:42:57.904Z,76.31
2022-10-22T12:45:30.432Z,76.28
2022-10-22T12:48:06.489Z,76.44
2022-10-22T12:50:39.507Z,76.19
2022-10-22T12:53:13.670Z,76.32
2022-10-22T12:55:40.285Z,76.16
2022-10-22T12:58:07.135Z,75.98
2022-10-22T13:00:35.571Z,76.60
2022-10-22T13:03:06.374Z,76.71
2022-10-22T13:05:39.083Z,76.47
2022-10-22T13:08:11.504Z,76.24
2022-10-22T13:10:40.835Z,75.94
2022-10-22T13:13:07.487Z,75.96
2022-10-22T13:15:39.449Z,75.93
2022-10-22T13:18:15.619Z,75.89
2022-10-22T13:20:55.874Z,75.88
2022-10-22T13:23:26.235Z,75.93
2022-10-22T13:26:23.902Z,75.59
2022-10-22T13:28:56.215Z,75.71
2022-10-22T13:31:33.807Z,75.13
2022-10-22T13:34:10.873Z,75.24
2022-10-22T13:36:39.708Z,75.72
2022-10-22T13:39:20.534Z,75.24
2022-10-22T13:41:50.194Z,75.38
2022-10-22T13:44:18.405Z,75.37
2022-10-22T13:46:46.416Z,75.09
2022-10-22T13:49:16.656Z,75.11
2022-10-22T13:51:58.891Z,74.96
2022-10-22T13:54:25.620Z,75.03
2022-10-22T13:56:53.737Z,74.90
2022-10-22T14:00:11.419Z,74.75
2022-10-22T14:02:48.278Z,74.83
2022-10-22T14:05:17.497Z,74.54
2022-10-22T14:07:44.515Z,74.83
2022-10-22T14:10:17.363Z,74.43
2022-10-22T14:12:45.247Z,74.36
2022-10-22T14:15:16.552Z,74.64
2022-10-22T14:17:56.481Z,74.35
2022-10-22T14:20:26.894Z,74.54
2022-10-22T14:22:53.775Z,74.11
2022-10-22T14:25:23.798Z,74.31
2022-10-22T14:27:51.246Z,74.40
2022-10-22T14:30:20.846Z,74.38
2022-10-22T14:32:48.806Z,74.15
2022-10-22T14:35:22.999Z,74.06
2022-10-22T14:37:49.972Z,74.53
2022-10-22T14:40:19.169Z,74.05
2022-10-22T14:42:47.632Z,74.29
2022-10-22T14:45:18.241Z,74.39
2022-10-22T14:47:44.852Z,74.26
2022-10-22T14:50:12.024Z,74.02
2022-10-22T14:52:38.742Z,74.12
2022-10-22T14:55:06.065Z,73.93
2022-10-22T14:57:32.895Z,73.98
2022-10-22T14:59:59.445Z,73.98
2022-10-22T15:02:26.452Z,73.81
2022-10-22T15:04:52.919Z,73.80
2022-10-22T15:07:20.320Z,73.82
2022-10-22T15:09:46.942Z,73.74
2022-10-22T15:12:13.442Z,73.40
2022-10-22T15:14:39.918Z,73.78
2022-10-22T15:17:06.405Z,73.64
2022-10-22T15:19:33.531Z,73.64
2022-10-22T15:22:00.178Z,73.59
2022-10-22T15:24:26.665Z,73.50
2022-10-22T15:26:53.984Z,73.34
2022-10-22T15:29:20.860Z,73.38
2022-10-22T15:31:50.502Z,73.48
2022-10-22T15:34:26.230Z,73.05
2022-10-22T15:36:55.555Z,73.34
2022-10-22T15:39:23.225Z,73.36
2022-10-22T15:41:50.802Z,72.91
2022-10-22T15:44:20.141Z,73.23
2022-10-22T15:46:46.813Z,73.12
2022-10-22T15:49:13.751Z,72.90
2022-10-22T15:51:40.786Z,73.10
2022-10-22T15:54:10.182Z,72.86
2022-10-22T15:56:36.836Z,73.09
2022-10-22T15:59:04.082Z,73.04
2022-10-22T16:01:32.945Z,72.86
2022-10-22T16:04:00.355Z,72.86
2022-10-22T16:06:28.508Z,72.81
2022-10-22T16:08:57.486Z,72.66
2022-10-22T16:11:23.990Z,72.72
2022-10-22T16:13:58.379Z,72.88
2022-10-22T16:16:26.798Z,72.81
2022-10-22T16:18:53.362Z,72.68
2022-10-22T16:21:21.712Z,72.90
2022-10-22T16:23:48.727Z,72.89
2022-10-22T16:26:17.294Z,72.96
2022-10-22T16:28:44.709Z,72.80
2022-10-22T16:31:13.245Z,72.79
2022-10-22T16:33:47.757Z,72.99
2022-10-22T16:36:18.894Z,73.05
2022-10-22T16:38:46.786Z,72.99
2022-10-22T16:41:21.296Z,72.89
2022-10-22T16:43:50.284Z,72.95
2022-10-22T16:46:19.222Z,73.12
2022-10-22T16:48:49.749Z,73.02
2022-10-22T16:51:18.671Z,72.91
2022-10-22T16:53:45.680Z,72.98
2022-10-22T16:56:13.883Z,73.16
2022-10-22T16:58:53.758Z,72.93
2022-10-22T17:01:22.604Z,72.73
2022-10-22T17:03:49.127Z,72.87
2022-10-22T17:06:16.056Z,72.66
2022-10-22T17:08:43.344Z,72.95
2022-10-22T17:11:13.463Z,72.92
2022-10-22T17:13:41.817Z,72.85
2022-10-22T17:16:12.241Z,72.80
2022-10-22T17:18:41.561Z,73.09
2022-10-22T17:21:09.992Z,72.96
2022-10-22T17:23:37.540Z,72.94
2022-10-22T17:26:07.336Z,73.10
2022-10-22T17:28:35.882Z,73.16
2022-10-22T17:31:08.189Z,73.04
2022-10-22T17:33:36.181Z,73.03
2022-10-22T17:36:05.969Z,72.93
2022-10-22T17:38:32.432Z,72.82
2022-10-22T17:41:01.619Z,72.69
2022-10-22T17:43:30.696Z,72.75
2022-10-22T17:46:10.649Z,72.61
2022-10-22T17:48:37.420Z,72.62
2022-10-22T17:51:08.020Z,72.73
2022-10-22T17:53:34.749Z,72.62
2022-10-22T17:56:03.779Z,72.73
2022-10-22T17:58:30.800Z,72.33
2022-10-22T18:00:58.009Z,72.48
2022-10-22T18:03:25.336Z,72.08
2022-10-22T18:05:51.944Z,72.51
2022-10-22T18:08:18.433Z,72.32
2022-10-22T18:10:45.068Z,72.42
2022-10-22T18:13:11.804Z,72.22
2022-10-22T18:15:38.435Z,72.49
2022-10-22T18:18:05.110Z,72.46
2022-10-22T18:20:31.779Z,72.25
2022-10-22T18:22:58.405Z,72.38
2022-10-22T18:25:25.161Z,72.42
2022-10-22T18:27:51.805Z,72.20
2022-10-22T18:30:18.353Z,72.08
2022-10-22T18:32:44.877Z,72.40
2022-10-22T18:35:11.979Z,72.13
2022-10-22T18:37:39.981Z,72.11
2022-10-22T18:40:08.823Z,72.28
2022-10-22T18:42:39.760Z,72.35
2022-10-22T18:45:07.294Z,72.20
2022-10-22T18:47:33.793Z,72.25
2022-10-22T18:50:00.350Z,72.32
2022-10-22T18:52:26.908Z,72.37
2022-10-22T18:54:53.483Z,72.28
2022-10-22T18:57:19.971Z,72.26
2022-10-22T18:59:46.503Z,72.21
2022-10-22T19:02:16.086Z,72.31
2022-10-22T19:04:43.920Z,72.20
2022-10-22T19:07:12.385Z,72.31
2022-10-22T19:09:40.833Z,72.03
2022-10-22T19:12:07.579Z,72.40
2022-10-22T19:14:34.163Z,72.48
2022-10-22T19:17:01.078Z,72.23
2022-10-22T19:19:28.686Z,72.37
2022-10-22T19:21:56.825Z,72.05
2022-10-22T19:24:23.451Z,72.17
2022-10-22T19:26:50.233Z,72.30
2022-10-22T19:29:19.454Z,72.34
2022-10-22T19:31:46.819Z,72.18
2022-10-22T19:34:13.544Z,72.26
2022-10-22T19:36:40.623Z,72.61
2022-10-22T19:39:07.645Z,72.33
2022-10-22T19:41:34.926Z,72.33
2022-10-22T19:44:01.766Z,72.47
2022-10-22T19:46:30.278Z,72.28
2022-10-22T19:48:57.338Z,72.55
2022-10-22T19:51:33.798Z,72.51
2022-10-22T19:54:03.158Z,72.58
2022-10-22T19:56:30.473Z,72.34
2022-10-22T19:58:57.545Z,72.64
2022-10-22T20:01:24.410Z,72.57
2022-10-22T20:03:51.084Z,72.46
2022-10-22T20:06:18.712Z,72.47
2022-10-22T20:08:46.777Z,72.34
2022-10-22T20:11:20.436Z,72.44
2022-10-22T20:13:51.182Z,72.65
2022-10-22T20:16:23.115Z,72.56
2022-10-22T20:18:50.684Z,72.52
2022-10-22T20:21:19.270Z,72.61
2022-10-22T20:23:47.092Z,72.60
2022-10-22T20:26:13.881Z,72.53
2022-10-22T20:28:40.353Z,72.60
2022-10-22T20:31:11.747Z,72.37
2022-10-22T20:33:38.410Z,72.41
2022-10-22T20:36:09.603Z,72.43
2022-10-22T20:41:09.926Z,72.49
2022-10-22T20:43:36.721Z,72.69
2022-10-22T20:46:04.297Z,72.53
2022-10-22T20:48:31.602Z,72.56
2022-10-22T20:50:59.522Z,72.40
2022-10-22T20:53:27.000Z,72.55
2022-10-22T20:55:57.409Z,72.66
2022-10-22T20:58:26.677Z,72.51
2022-10-22T21:00:55.071Z,72.55
2022-10-22T21:03:21.880Z,72.52
2022-10-22T21:05:48.770Z,72.15
2022-10-22T21:08:17.483Z,72.41
2022-10-22T21:10:46.398Z,72.10
2022-10-22T21:13:13.675Z,72.08
2022-10-22T21:15:40.377Z,72.10
2022-10-22T21:18:08.004Z,72.07
2022-10-22T21:20:34.668Z,72.11
2022-10-22T21:23:01.260Z,71.94
2022-10-22T21:25:27.791Z,72.14
2022-10-22T21:27:54.305Z,71.92
2022-10-22T21:30:20.772Z,72.20
2022-10-22T21:32:47.350Z,72.07
2022-10-22T21:35:13.908Z,72.08
2022-10-22T21:37:40.823Z,72.06
2022-10-22T21:40:08.233Z,72.19
2022-10-22T21:42:34.739Z,72.04
2022-10-22T21:45:01.323Z,71.97
2022-10-22T21:47:27.927Z,71.96
2022-10-22T21:49:54.443Z,71.95
2022-10-22T21:52:21.024Z,71.91
2022-10-22T21:54:47.550Z,72.03
2022-10-22T21:57:14.213Z,71.93
2022-10-22T21:59:40.690Z,71.90
2022-10-22T22:02:07.269Z,72.06
2022-10-22T22:04:34.050Z,72.03
2022-10-22T22:07:00.578Z,72.09
2022-10-22T22:09:27.173Z,72.17
2022-10-22T22:11:53.995Z,72.16
2022-10-22T22:14:20.531Z,72.08
2022-10-22T22:16:47.056Z,72.13
2022-10-22T22:19:13.739Z,72.20
2022-10-22T22:21:41.137Z,72.21
2022-10-22T22:24:10.863Z,72.35
2022-10-22T22:26:37.453Z,72.33
2022-10-22T22:29:04.149Z,72.31
2022-10-22T22:31:33.514Z,72.38
2022-10-22T22:34:14.309Z,72.23
2022-10-22T22:36:45.771Z,72.33
2022-10-22T22:39:17.968Z,72.46
2022-10-22T22:41:45.301Z,72.39
2022-10-22T22:44:12.875Z,72.33
2022-10-22T22:46:39.765Z,72.30
2022-10-22T22:49:06.979Z,72.42
2022-10-22T22:51:33.665Z,72.39
2022-10-22T22:54:01.018Z,72.43
2022-10-22T22:56:30.017Z,72.46
2022-10-22T22:58:56.898Z,72.41
2022-10-22T23:01:38.131Z,72.47
2022-10-22T23:04:26.596Z,72.86
2022-10-22T23:06:53.202Z,72.71
2022-10-22T23:11:51.863Z,72.56
2022-10-22T23:14:19.384Z,72.63
2022-10-22T23:16:49.183Z,72.65
2022-10-22T23:19:19.160Z,72.62
2022-10-22T23:21:51.298Z,72.67
2022-10-22T23:24:20.518Z,72.68
2022-10-22T23:26:49.571Z,72.64
2022-10-22T23:29:22.619Z,72.67
2022-10-22T23:31:50.441Z,72.71
2022-10-22T23:34:22.869Z,72.69
2022-10-22T23:36:50.472Z,72.88
2022-10-22T23:39:19.790Z,72.84
2022-10-22T23:41:46.911Z,72.62
2022-10-22T23:44:13.895Z,72.70
2022-10-22T23:46:41.519Z,72.76
2022-10-22T23:49:09.715Z,72.73
2022-10-22T23:51:36.306Z,72.84
2022-10-22T23:54:05.605Z,72.88
2022-10-22T23:56:33.110Z,72.83
2022-10-22T23:58:59.684Z,72.83
